sensor_id;sensor_type;location;lat;lon;timestamp;pressure;altitude;pressure_sealevel;temperature;humidity
46614;BME280;32338;50.430;6.806;2022-10-26T00:00:31;66407.69;;;9.08;100.00
46614;BME280;32338;50.430;6.806;2022-10-26T00:02:58;66405.63;;;9.08;100.00
46614;BME280;32338;50.430;6.806;2022-10-26T00:05:24;66411.06;;;9.11;100.00
46614;BME280;32338;50.430;6.806;2022-10-26T00:07:51;66409.72;;;9.07;100.00
46614;BME280;32338;50.430;6.806;2022-10-26T00:10:17;66405.44;;;9.06;100.00
46614;BME280;32338;50.430;6.806;2022-10-26T00:12:47;66407.88;;;9.11;100.00
46614;BME280;32338;50.430;6.806;2022-10-26T00:15:15;66404.50;;;9.07;100.00
46614;BME280;32338;50.430;6.806;2022-10-26T00:17:43;66406.00;;;9.06;100.00
46614;BME280;32338;50.430;6.806;2022-10-26T00:20:11;66403.94;;;9.07;100.00
46614;BME280;32338;50.430;6.806;2022-10-26T00:22:37;66413.31;;;9.13;100.00
46614;BME280;32338;50.430;6.806;2022-10-26T00:25:05;66414.06;;;9.16;100.00
46614;BME280;32338;50.430;6.806;2022-10-26T00:27:32;66422.31;;;9.21;100.00
46614;BME280;32338;50.430;6.806;2022-10-26T00:29:58;66425.50;;;9.22;100.00
46614;BME280;32338;50.430;6.806;2022-10-26T00:32:25;66420.06;;;9.19;100.00
46614;BME280;32338;50.430;6.806;2022-10-26T00:34:53;66425.50;;;9.22;100.00
46614;BME280;32338;50.430;6.806;2022-10-26T00:37:19;66424.00;;;9.23;100.00
46614;BME280;32338;50.430;6.806;2022-10-26T00:39:46;66430.56;;;9.27;100.00
46614;BME280;32338;50.430;6.806;2022-10-26T00:42:17;66425.69;;;9.24;100.00
46614;BME280;32338;50.430;6.806;2022-10-26T00:44:55;66424.75;;;9.26;100.00
46614;BME280;32338;50.430;6.806;2022-10-26T00:47:30;66423.06;;;9.24;100.00
46614;BME280;32338;50.430;6.806;2022-10-26T00:50:00;66425.34;;;9.27;100.00
46614;BME280;32338;50.430;6.806;2022-10-26T00:52:28;66424.75;;;9.26;100.00
46614;BME280;32338;50.430;6.806;2022-10-26T00:54:55;66437.31;;;9.33;100.00
46614;BME280;32338;50.430;6.806;2022-10-26T00:57:21;66441.66;;;9.41;100.00
46614;BME280;32338;50.430;6.806;2022-10-26T00:59:50;66446.31;;;9.41;100.00
46614;BME280;32338;50.430;6.806;2022-10-26T01:02:18;66446.50;;;9.44;100.00
46614;BME280;32338;50.430;6.806;2022-10-26T01:04:46;66448.78;;;9.46;100.00
46614;BME280;32338;50.430;6.806;2022-10-26T01:07:14;66457.78;;;9.54;100.00
46614;BME280;32338;50.430;6.806;2022-10-26T01:09:41;66460.03;;;9.56;100.00
46614;BME280;32338;50.430;6.806;2022-10-26T01:12:08;66469.78;;;9.67;100.00
46614;BME280;32338;50.430;6.806;2022-10-26T01:14:34;66487.59;;;9.81;100.00
46614;BME280;32338;50.430;6.806;2022-10-26T01:17:10;66482.56;;;9.77;100.00
46614;BME280;32338;50.430;6.806;2022-10-26T01:22:55;66484.78;;;9.79;100.00
46614;BME280;32338;50.430;6.806;2022-10-26T01:25:37;66489.31;;;9.83;100.00
46614;BME280;32338;50.430;6.806;2022-10-26T01:28:10;66489.88;;;9.83;100.00
46614;BME280;32338;50.430;6.806;2022-10-26T01:30:45;66496.78;;;9.85;100.00
46614;BME280;32338;50.430;6.806;2022-10-26T01:33:22;66497.56;;;9.88;100.00
46614;BME280;32338;50.430;6.806;2022-10-26T01:36:00;66497.19;;;9.90;100.00
46614;BME280;32338;50.430;6.806;2022-10-26T01:38:32;66500.19;;;9.88;100.00
46614;BME280;32338;50.430;6.806;2022-10-26T01:41:04;66505.44;;;9.95;100.00
46614;BME280;32338;50.430;6.806;2022-10-26T01:43:36;66511.09;;;10.00;100.00
46614;BME280;32338;50.430;6.806;2022-10-26T01:46:08;66515.97;;;10.10;100.00
46614;BME280;32338;50.430;6.806;2022-10-26T01:48:37;66517.09;;;10.11;100.00
46614;BME280;32338;50.430;6.806;2022-10-26T01:51:06;66511.63;;;10.01;100.00
46614;BME280;32338;50.430;6.806;2022-10-26T01:53:34;66503.94;;;9.96;100.00
46614;BME280;32338;50.430;6.806;2022-10-26T01:56:01;66503.38;;;9.96;100.00
46614;BME280;32338;50.430;6.806;2022-10-26T02:01:28;66506.41;;;10.01;100.00
46614;BME280;32338;50.430;6.806;2022-10-26T02:04:06;66509.56;;;10.01;100.00
46614;BME280;32338;50.430;6.806;2022-10-26T02:06:41;66512.19;;;10.01;100.00
46614;BME280;32338;50.430;6.806;2022-10-26T02:09:17;66512.00;;;9.99;100.00
46614;BME280;32338;50.430;6.806;2022-10-26T02:11:48;66504.50;;;9.97;100.00
46614;BME280;32338;50.430;6.806;2022-10-26T02:14:20;66505.06;;;9.97;100.00
46614;BME280;32338;50.430;6.806;2022-10-26T02:16:53;66502.44;;;9.97;100.00
46614;BME280;32338;50.430;6.806;2022-10-26T02:19:36;66515.94;;;10.02;100.00
46614;BME280;32338;50.430;6.806;2022-10-26T02:22:11;66510.16;;;10.02;100.00
46614;BME280;32338;50.430;6.806;2022-10-26T02:24:38;66513.50;;;10.05;100.00
46614;BME280;32338;50.430;6.806;2022-10-26T02:27:09;66509.56;;;10.01;100.00
46614;BME280;32338;50.430;6.806;2022-10-26T02:29:38;66508.47;;;10.00;100.00
46614;BME280;32338;50.430;6.806;2022-10-26T02:32:07;66499.84;;;9.97;100.00
46614;BME280;32338;50.430;6.806;2022-10-26T02:34:36;66509.19;;;9.96;100.00
46614;BME280;32338;50.430;6.806;2022-10-26T02:37:04;66503.94;;;9.96;100.00
46614;BME280;32338;50.430;6.806;2022-10-26T02:39:32;66505.06;;;9.97;100.00
46614;BME280;32338;50.430;6.806;2022-10-26T02:42:03;66505.06;;;9.97;100.00
46614;BME280;32338;50.430;6.806;2022-10-26T02:44:36;66516.13;;;10.05;100.00
46614;BME280;32338;50.430;6.806;2022-10-26T02:47:08;66506.94;;;10.01;100.00
46614;BME280;32338;50.430;6.806;2022-10-26T02:49:35;66516.13;;;10.05;100.00
46614;BME280;32338;50.430;6.806;2022-10-26T02:52:05;66508.66;;;10.03;100.00
46614;BME280;32338;50.430;6.806;2022-10-26T02:54:43;66509.75;;;10.04;100.00
46614;BME280;32338;50.430;6.806;2022-10-26T02:57:16;66510.69;;;10.02;100.00
46614;BME280;32338;50.430;6.806;2022-10-26T02:59:45;66518.03;;;10.09;100.00
46614;BME280;32338;50.430;6.806;2022-10-26T03:02:15;66516.13;;;10.05;100.00
46614;BME280;32338;50.430;6.806;2022-10-26T03:04:43;66517.47;;;10.09;100.00
46614;BME280;32338;50.430;6.806;2022-10-26T03:07:09;66518.59;;;10.10;100.00
46614;BME280;32338;50.430;6.806;2022-10-26T03:09:37;66517.25;;;10.06;100.00
46614;BME280;32338;50.430;6.806;2022-10-26T03:12:04;66538.09;;;10.25;100.00
46614;BME280;32338;50.430;6.806;2022-10-26T03:14:30;66538.88;;;10.28;100.00
46614;BME280;32338;50.430;6.806;2022-10-26T03:16:57;66540.00;;;10.29;100.00
46614;BME280;32338;50.430;6.806;2022-10-26T03:19:25;66535.28;;;10.22;100.00
46614;BME280;32338;50.430;6.806;2022-10-26T03:21:51;66535.66;;;10.28;100.00
46614;BME280;32338;50.430;6.806;2022-10-26T03:24:18;66538.28;;;10.28;100.00
46614;BME280;32338;50.430;6.806;2022-10-26T03:26:45;66540.00;;;10.29;100.00
46614;BME280;32338;50.430;6.806;2022-10-26T03:29:11;66552.97;;;10.41;100.00
46614;BME280;32338;50.430;6.806;2022-10-26T03:31:38;66545.28;;;10.36;100.00
46614;BME280;32338;50.430;6.806;2022-10-26T03:34:04;66538.50;;;10.30;100.00
46614;BME280;32338;50.430;6.806;2022-10-26T03:36:32;66538.88;;;10.28;100.00
46614;BME280;32338;50.430;6.806;2022-10-26T03:38:59;66539.81;;;10.27;100.00
46614;BME280;32338;50.430;6.806;2022-10-26T03:41:26;66532.09;;;10.22;100.00
46614;BME280;32338;50.430;6.806;2022-10-26T03:43:52;66529.84;;;10.20;100.00
46614;BME280;32338;50.430;6.806;2022-10-26T03:46:19;66531.53;;;10.21;100.00
46614;BME280;32338;50.430;6.806;2022-10-26T03:48:45;66535.09;;;10.20;100.00
46614;BME280;32338;50.430;6.806;2022-10-26T03:51:12;66537.75;;;10.27;100.00
46614;BME280;32338;50.430;6.806;2022-10-26T03:53:40;66535.84;;;10.23;100.00
46614;BME280;32338;50.430;6.806;2022-10-26T03:56:07;66540.00;;;10.29;100.00
46614;BME280;32338;50.430;6.806;2022-10-26T03:58:33;66532.47;;;10.20;100.00
46614;BME280;32338;50.430;6.806;2022-10-26T04:01:00;66531.38;;;10.26;100.00
46614;BME280;32338;50.430;6.806;2022-10-26T04:03:26;66533.44;;;10.26;100.00
46614;BME280;32338;50.430;6.806;2022-10-26T04:05:53;66526.69;;;10.19;100.00
46614;BME280;32338;50.430;6.806;2022-10-26T04:08:19;66527.03;;;10.17;100.00
46614;BME280;32338;50.430;6.806;2022-10-26T04:10:48;66526.84;;;10.15;100.00
46614;BME280;32338;50.430;6.806;2022-10-26T04:13:14;66530.78;;;10.18;100.00
46614;BME280;32338;50.430;6.806;2022-10-26T04:15:41;66526.84;;;10.15;100.00
46614;BME280;32338;50.430;6.806;2022-10-26T04:18:08;66533.03;;;10.20;100.00
46614;BME280;32338;50.430;6.806;2022-10-26T04:20:38;66526.47;;;10.17;100.00
46614;BME280;32338;50.430;6.806;2022-10-26T04:23:07;66524.22;;;10.15;100.00
46614;BME280;32338;50.430;6.806;2022-10-26T04:25:35;66523.47;;;10.12;100.00
46614;BME280;32338;50.430;6.806;2022-10-26T04:28:05;66527.59;;;10.18;100.00
46614;BME280;32338;50.430;6.806;2022-10-26T04:30:33;66524.41;;;10.17;100.00
46614;BME280;32338;50.430;6.806;2022-10-26T04:32:59;66529.84;;;10.20;100.00
46614;BME280;32338;50.430;6.806;2022-10-26T04:35:27;66536.59;;;10.26;100.00
46614;BME280;32338;50.430;6.806;2022-10-26T04:37:56;66549.78;;;10.41;100.00
46614;BME280;32338;50.430;6.806;2022-10-26T04:40:23;66544.84;;;10.31;100.00
46614;BME280;32338;50.430;6.806;2022-10-26T04:42:50;66550.16;;;10.38;100.00
46614;BME280;32338;50.430;6.806;2022-10-26T04:45:17;66554.66;;;10.43;100.00
46614;BME280;32338;50.430;6.806;2022-10-26T04:47:44;66547.88;;;10.36;100.00
46614;BME280;32338;50.430;6.806;2022-10-26T04:50:12;66550.16;;;10.38;100.00
46614;BME280;32338;50.430;6.806;2022-10-26T04:52:39;66554.28;;;10.45;100.00
46614;BME280;32338;50.430;6.806;2022-10-26T04:55:06;66559.19;;;10.47;100.00
46614;BME280;32338;50.430;6.806;2022-10-26T04:57:33;66555.78;;;10.44;100.00
46614;BME280;32338;50.430;6.806;2022-10-26T05:00:00;66566.28;;;10.51;100.00
46614;BME280;32338;50.430;6.806;2022-10-26T05:02:29;66573.25;;;10.60;100.00
46614;BME280;32338;50.430;6.806;2022-10-26T05:04:55;66574.38;;;10.61;100.00
46614;BME280;32338;50.430;6.806;2022-10-26T05:07:22;66567.25;;;10.57;100.00
46614;BME280;32338;50.430;6.806;2022-10-26T05:09:49;66568.19;;;10.55;100.00
46614;BME280;32338;50.430;6.806;2022-10-26T05:12:15;66561.06;;;10.51;100.00
46614;BME280;32338;50.430;6.806;2022-10-26T05:14:42;66570.44;;;10.57;100.00
46614;BME280;32338;50.430;6.806;2022-10-26T05:17:08;66567.03;;;10.54;100.00
46614;BME280;32338;50.430;6.806;2022-10-26T05:19:36;66584.53;;;10.70;100.00
46614;BME280;32338;50.430;6.806;2022-10-26T05:22:03;66575.72;;;10.64;100.00
46614;BME280;32338;50.430;6.806;2022-10-26T05:24:30;66570.06;;;10.59;100.00
46614;BME280;32338;50.430;6.806;2022-10-26T05:26:56;66576.25;;;10.65;100.00
46614;BME280;32338;50.430;6.806;2022-10-26T05:29:23;66580.56;;;10.59;100.00
46614;BME280;32338;50.430;6.806;2022-10-26T05:31:50;66570.44;;;10.57;100.00
46614;BME280;32338;50.430;6.806;2022-10-26T05:34:17;66567.03;;;10.54;100.00
46614;BME280;32338;50.430;6.806;2022-10-26T05:36:45;66573.63;;;10.58;100.00
46614;BME280;32338;50.430;6.806;2022-10-26T05:39:11;66574.38;;;10.61;100.00
46614;BME280;32338;50.430;6.806;2022-10-26T05:41:38;66570.44;;;10.57;100.00
46614;BME280;32338;50.430;6.806;2022-10-26T05:44:04;66564.44;;;10.54;100.00
46614;BME280;32338;50.430;6.806;2022-10-26T05:46:31;66559.56;;;10.52;100.00
46614;BME280;32338;50.430;6.806;2022-10-26T05:48:58;66572.13;;;10.59;100.00
46614;BME280;32338;50.430;6.806;2022-10-26T05:51:24;66574.19;;;10.58;100.00
46614;BME280;32338;50.430;6.806;2022-10-26T05:53:52;66565.56;;;10.55;100.00
46614;BME280;32338;50.430;6.806;2022-10-26T05:56:23;66558.44;;;10.51;100.00
46614;BME280;32338;50.430;6.806;2022-10-26T05:58:59;66555.03;;;10.48;100.00
46614;BME280;32338;50.430;6.806;2022-10-26T06:01:34;66559.53;;;10.45;100.00
46614;BME280;32338;50.430;6.806;2022-10-26T06:04:13;66561.59;;;10.44;100.00
46614;BME280;32338;50.430;6.806;2022-10-26T06:06:44;66550.53;;;10.44;100.00
46614;BME280;32338;50.430;6.806;2022-10-26T06:09:13;66560.84;;;10.48;100.00
46614;BME280;32338;50.430;6.806;2022-10-26T06:11:40;66565.00;;;10.54;100.00
46614;BME280;32338;50.430;6.806;2022-10-26T06:14:08;66563.69;;;10.51;100.00
46614;BME280;32338;50.430;6.806;2022-10-26T06:16:45;66568.19;;;10.55;100.00
46614;BME280;32338;50.430;6.806;2022-10-26T06:19:25;66567.97;;;10.52;100.00
46614;BME280;32338;50.430;6.806;2022-10-26T06:22:07;66564.22;;;10.51;100.00
46614;BME280;32338;50.430;6.806;2022-10-26T06:24:45;66568.19;;;10.55;100.00
46614;BME280;32338;50.430;6.806;2022-10-26T06:27:22;66567.44;;;10.52;100.00
46614;BME280;32338;50.430;6.806;2022-10-26T06:29:57;66564.97;;;10.47;100.00
46614;BME280;32338;50.430;6.806;2022-10-26T06:32:26;66551.28;;;10.40;100.00
46614;BME280;32338;50.430;6.806;2022-10-26T06:34:57;66544.50;;;10.33;100.00
46614;BME280;32338;50.430;6.806;2022-10-26T06:37:30;66541.31;;;10.33;100.00
46614;BME280;32338;50.430;6.806;2022-10-26T06:39:59;66546.00;;;10.32;100.00
46614;BME280;32338;50.430;6.806;2022-10-26T06:42:26;66536.44;;;10.31;100.00
46614;BME280;32338;50.430;6.806;2022-10-26T06:44:53;66543.00;;;10.34;100.00
46614;BME280;32338;50.430;6.806;2022-10-26T06:47:23;66548.47;;;10.37;100.00
46614;BME280;32338;50.430;6.806;2022-10-26T06:49:57;66547.53;;;10.38;100.00
46614;BME280;32338;50.430;6.806;2022-10-26T06:52:30;66554.09;;;10.42;100.00
46614;BME280;32338;50.430;6.806;2022-10-26T06:55:01;66544.72;;;10.36;100.00
46614;BME280;32338;50.430;6.806;2022-10-26T06:57:33;66554.09;;;10.42;100.00
46614;BME280;32338;50.430;6.806;2022-10-26T07:00:03;66559.72;;;10.47;100.00
46614;BME280;32338;50.430;6.806;2022-10-26T07:02:30;66556.91;;;10.45;100.00
46614;BME280;32338;50.430;6.806;2022-10-26T07:04:56;66556.56;;;10.47;100.00
46614;BME280;32338;50.430;6.806;2022-10-26T07:07:25;66555.78;;;10.44;100.00
46614;BME280;32338;50.430;6.806;2022-10-26T07:09:52;66556.91;;;10.45;100.00
46614;BME280;32338;50.430;6.806;2022-10-26T07:12:20;66550.34;;;10.41;100.00
46614;BME280;32338;50.430;6.806;2022-10-26T07:14:47;66564.03;;;10.49;100.00
46614;BME280;32338;50.430;6.806;2022-10-26T07:17:13;66558.03;;;10.46;100.00
46614;BME280;32338;50.430;6.806;2022-10-26T07:19:41;66566.50;;;10.53;100.00
46614;BME280;32338;50.430;6.806;2022-10-26T07:22:09;66571.19;;;10.60;100.00
46614;BME280;32338;50.430;6.806;2022-10-26T07:24:35;66587.13;;;10.70;100.00
46614;BME280;32338;50.430;6.806;2022-10-26T07:27:02;66590.72;;;10.76;100.00
46614;BME280;32338;50.430;6.806;2022-10-26T07:29:30;66592.97;;;10.78;100.00
46614;BME280;32338;50.430;6.806;2022-10-26T07:31:56;66604.63;;;10.86;100.00
46614;BME280;32338;50.430;6.806;2022-10-26T07:34:23;66612.13;;;10.95;100.00
46614;BME280;32338;50.430;6.806;2022-10-26T07:36:49;66614.03;;;10.99;100.00
46614;BME280;32338;50.430;6.806;2022-10-26T07:39:16;66618.91;;;11.01;100.00
46614;BME280;32338;50.430;6.806;2022-10-26T07:41:44;66645.00;;;11.21;100.00
46614;BME280;32338;50.430;6.806;2022-10-26T07:44:11;66636.75;;;11.23;100.00
46614;BME280;32338;50.430;6.806;2022-10-26T07:46:39;66653.84;;;11.33;100.00
46614;BME280;32338;50.430;6.806;2022-10-26T07:49:05;66655.72;;;11.38;100.00
46614;BME280;32338;50.430;6.806;2022-10-26T07:51:32;66665.13;;;11.44;100.00
46614;BME280;32338;50.430;6.806;2022-10-26T07:53:58;66681.28;;;11.56;100.00
46614;BME280;32338;50.430;6.806;2022-10-26T07:56:25;66682.25;;;11.62;100.00
46614;BME280;32338;50.430;6.806;2022-10-26T07:58:53;66686.19;;;11.65;100.00
46614;BME280;32338;50.430;6.806;2022-10-26T08:01:20;66685.44;;;11.62;100.00
46614;BME280;32338;50.430;6.806;2022-10-26T08:03:50;66688.25;;;11.65;100.00
46614;BME280;32338;50.430;6.806;2022-10-26T08:06:17;66701.97;;;11.80;100.00
46614;BME280;32338;50.430;6.806;2022-10-26T08:08:43;66693.34;;;11.70;100.00
46614;BME280;32338;50.430;6.806;2022-10-26T08:11:11;66683.00;;;11.65;100.00
46614;BME280;32338;50.430;6.806;2022-10-26T08:13:38;66695.22;;;11.74;100.00
46614;BME280;32338;50.430;6.806;2022-10-26T08:16:05;66704.06;;;11.79;100.00
46614;BME280;32338;50.430;6.806;2022-10-26T08:18:32;66711.38;;;11.86;100.00
46614;BME280;32338;50.430;6.806;2022-10-26T08:21:03;66701.78;;;11.77;100.00
46614;BME280;32338;50.430;6.806;2022-10-26T08:23:30;66705.75;;;11.81;100.00
46614;BME280;32338;50.430;6.806;2022-10-26T08:25:57;66718.16;;;11.92;100.00
46614;BME280;32338;50.430;6.806;2022-10-26T08:28:24;66725.69;;;12.02;100.00
46614;BME280;32338;50.430;6.806;2022-10-26T08:30:50;66728.69;;;12.07;100.00
46614;BME280;32338;50.430;6.806;2022-10-26T08:33:17;66741.09;;;12.11;100.00
46614;BME280;32338;50.430;6.806;2022-10-26T08:35:43;66737.72;;;12.15;100.00
46614;BME280;32338;50.430;6.806;2022-10-26T08:38:11;66748.44;;;12.18;100.00
46614;BME280;32338;50.430;6.806;2022-10-26T08:40:39;66739.97;;;12.10;100.00
46614;BME280;32338;50.430;6.806;2022-10-26T08:43:12;66726.22;;;11.95;100.00
46614;BME280;32338;50.430;6.806;2022-10-26T08:45:46;66720.03;;;11.96;100.00
46614;BME280;32338;50.430;6.806;2022-10-26T08:48:16;66727.75;;;12.01;100.00
46614;BME280;32338;50.430;6.806;2022-10-26T08:50:47;66737.34;;;12.10;100.00
46614;BME280;32338;50.430;6.806;2022-10-26T08:53:20;66748.63;;;12.20;100.00
46614;BME280;32338;50.430;6.806;2022-10-26T08:55:52;66763.31;;;12.33;100.00
46614;BME280;32338;50.430;6.806;2022-10-26T08:58:24;66773.09;;;12.45;100.00
46614;BME280;32338;50.430;6.806;2022-10-26T09:00:52;66781.00;;;12.52;100.00
46614;BME280;32338;50.430;6.806;2022-10-26T09:03:19;66788.69;;;12.64;100.00
46614;BME280;32338;50.430;6.806;2022-10-26T09:05:56;66797.91;;;12.68;100.00
46614;BME280;32338;50.430;6.806;2022-10-26T09:08:32;66816.91;;;12.82;100.00
46614;BME280;32338;50.430;6.806;2022-10-26T09:11:09;66823.50;;;12.86;100.00
46614;BME280;32338;50.430;6.806;2022-10-26T09:13:48;66818.78;;;12.87;100.00
46614;BME280;32338;50.430;6.806;2022-10-26T09:16:25;66825.56;;;12.93;100.00
46614;BME280;32338;50.430;6.806;2022-10-26T09:19:03;66834.97;;;12.99;100.00
46614;BME280;32338;50.430;6.806;2022-10-26T09:21:39;66847.41;;;13.10;100.00
46614;BME280;32338;50.430;6.806;2022-10-26T09:24:13;66849.84;;;13.15;100.00
46614;BME280;32338;50.430;6.806;2022-10-26T09:26:52;66856.44;;;13.19;100.00
46614;BME280;32338;50.430;6.806;2022-10-26T09:29:23;66851.00;;;13.16;100.00
46614;BME280;32338;50.430;6.806;2022-10-26T09:31:50;66867.56;;;13.34;100.00
46614;BME280;32338;50.430;6.806;2022-10-26T09:34:23;66874.72;;;13.38;100.00
46614;BME280;32338;50.430;6.806;2022-10-26T09:36:53;66873.56;;;13.37;100.00
46614;BME280;32338;50.430;6.806;2022-10-26T09:39:29;66886.22;;;13.43;100.00
46614;BME280;32338;50.430;6.806;2022-10-26T09:42:03;66895.03;;;13.49;100.00
46614;BME280;32338;50.430;6.806;2022-10-26T09:44:38;66898.06;;;13.54;100.00
46614;BME280;32338;50.430;6.806;2022-10-26T09:47:13;66903.34;;;13.61;100.00
46614;BME280;32338;50.430;6.806;2022-10-26T09:49:44;66912.75;;;13.75;100.00
46614;BME280;32338;50.430;6.806;2022-10-26T09:52:13;66933.47;;;13.91;100.00
46614;BME280;32338;50.430;6.806;2022-10-26T09:54:41;66950.59;;;14.09;100.00
46614;BME280;32338;50.430;6.806;2022-10-26T09:57:09;66948.91;;;14.08;100.00
46614;BME280;32338;50.430;6.806;2022-10-26T09:59:40;66958.50;;;14.09;100.00
46614;BME280;32338;50.430;6.806;2022-10-26T10:02:38;66981.13;;;14.37;100.00
46614;BME280;32338;50.430;6.806;2022-10-26T10:05:23;66996.78;;;14.49;100.00
46614;BME280;32338;50.430;6.806;2022-10-26T10:07:50;66992.25;;;14.45;100.00
46614;BME280;32338;50.430;6.806;2022-10-26T10:10:19;67015.63;;;14.62;100.00
46614;BME280;32338;50.430;6.806;2022-10-26T10:12:47;67034.50;;;14.81;100.00
46614;BME280;32338;50.430;6.806;2022-10-26T10:15:18;67032.22;;;14.79;100.00
46614;BME280;32338;50.430;6.806;2022-10-26T10:17:47;67025.06;;;14.75;100.00
46614;BME280;32338;50.430;6.806;2022-10-26T10:20:18;67017.69;;;14.68;100.00
46614;BME280;32338;50.430;6.806;2022-10-26T10:22:53;67033.34;;;14.80;100.00
46614;BME280;32338;50.430;6.806;2022-10-26T10:25:31;67037.31;;;14.84;100.00
46614;BME280;32338;50.430;6.806;2022-10-26T10:27:58;67052.41;;;14.95;100.00
46614;BME280;32338;50.430;6.806;2022-10-26T10:30:27;67051.63;;;14.99;100.00
46614;BME280;32338;50.430;6.806;2022-10-26T10:33:06;67059.19;;;15.01;100.00
46614;BME280;32338;50.430;6.806;2022-10-26T10:35:33;67070.69;;;15.14;100.00
46614;BME280;32338;50.430;6.806;2022-10-26T10:38:00;67066.72;;;15.11;100.00
46614;BME280;32338;50.430;6.806;2022-10-26T10:40:29;67068.03;;;15.14;100.00
46614;BME280;32338;50.430;6.806;2022-10-26T10:43:05;67090.47;;;15.32;100.00
46614;BME280;32338;50.430;6.806;2022-10-26T10:45:33;67111.22;;;15.49;100.00
46614;BME280;32338;50.430;6.806;2022-10-26T10:48:01;67105.00;;;15.50;100.00
46614;BME280;32338;50.430;6.806;2022-10-26T10:50:29;67110.47;;;15.53;100.00
46614;BME280;32338;50.430;6.806;2022-10-26T10:53:17;67108.00;;;15.48;100.00
46614;BME280;32338;50.430;6.806;2022-10-26T10:55:54;67115.56;;;15.57;100.00
46614;BME280;32338;50.430;6.806;2022-10-26T10:58:30;67144.63;;;15.86;100.00
46614;BME280;32338;50.430;6.806;2022-10-26T11:00:58;67147.81;;;15.87;100.00
46614;BME280;32338;50.430;6.806;2022-10-26T11:03:40;67182.34;;;16.18;100.00
46614;BME280;32338;50.430;6.806;2022-10-26T11:06:14;67195.94;;;16.31;100.00
46614;BME280;32338;50.430;6.806;2022-10-26T11:08:46;67199.16;;;16.31;100.00
46614;BME280;32338;50.430;6.806;2022-10-26T11:11:18;67202.19;;;16.36;100.00
46614;BME280;32338;50.430;6.806;2022-10-26T11:13:51;67210.47;;;16.42;100.00
46614;BME280;32338;50.430;6.806;2022-10-26T11:16:22;67222.75;;;16.50;100.00
46614;BME280;32338;50.430;6.806;2022-10-26T11:18:55;67230.66;;;16.65;100.00
46614;BME280;32338;50.430;6.806;2022-10-26T11:21:26;67240.50;;;16.69;100.00
46614;BME280;32338;50.430;6.806;2022-10-26T11:24:02;67240.69;;;16.72;100.00
46614;BME280;32338;50.430;6.806;2022-10-26T11:26:40;67257.66;;;16.87;100.00
46614;BME280;32338;50.430;6.806;2022-10-26T11:29:18;67259.56;;;16.91;100.00
46614;BME280;32338;50.430;6.806;2022-10-26T11:31:50;67284.28;;;17.11;100.00
46614;BME280;32338;50.430;6.806;2022-10-26T11:34:26;67299.44;;;17.23;100.00
46614;BME280;32338;50.430;6.806;2022-10-26T11:37:01;67306.22;;;17.29;100.00
46614;BME280;32338;50.430;6.806;2022-10-26T11:39:35;67314.91;;;17.39;100.00
46614;BME280;32338;50.430;6.806;2022-10-26T11:42:14;67313.78;;;17.38;100.00
46614;BME280;32338;50.430;6.806;2022-10-26T11:44:50;67336.06;;;17.54;100.00
46614;BME280;32338;50.430;6.806;2022-10-26T11:47:22;67351.94;;;17.75;98.44
46614;BME280;32338;50.430;6.806;2022-10-26T11:49:56;67338.31;;;17.63;98.39
46614;BME280;32338;50.430;6.806;2022-10-26T11:52:28;67335.69;;;17.56;99.90
46614;BME280;32338;50.430;6.806;2022-10-26T11:54:58;67341.34;;;17.61;100.00
46614;BME280;32338;50.430;6.806;2022-10-26T11:57:29;67309.81;;;17.34;100.00
46614;BME280;32338;50.430;6.806;2022-10-26T12:00:00;67289.22;;;17.13;100.00
46614;BME280;32338;50.430;6.806;2022-10-26T12:02:27;67273.38;;;16.99;100.00
46614;BME280;32338;50.430;6.806;2022-10-26T12:04:58;67255.97;;;16.85;100.00
46614;BME280;32338;50.430;6.806;2022-10-26T12:07:29;67263.94;;;16.93;100.00
46614;BME280;32338;50.430;6.806;2022-10-26T12:09:57;67258.81;;;16.88;100.00
46614;BME280;32338;50.430;6.806;2022-10-26T12:12:34;67270.53;;;16.96;100.00
46614;BME280;32338;50.430;6.806;2022-10-26T12:15:15;67264.66;;;16.89;100.00
46614;BME280;32338;50.430;6.806;2022-10-26T12:17:47;67256.34;;;16.83;100.00
46614;BME280;32338;50.430;6.806;2022-10-26T12:20:38;67274.09;;;17.02;100.00
46614;BME280;32338;50.430;6.806;2022-10-26T12:23:14;67272.41;;;17.00;100.00
46614;BME280;32338;50.430;6.806;2022-10-26T12:25:42;67276.75;;;17.02;100.00
46614;BME280;32338;50.430;6.806;2022-10-26T12:28:38;67269.00;;;16.97;100.00
46614;BME280;32338;50.430;6.806;2022-10-26T12:31:40;67269.59;;;16.98;100.00
46614;BME280;32338;50.430;6.806;2022-10-26T12:34:10;67290.34;;;17.14;100.00
46614;BME280;32338;50.430;6.806;2022-10-26T12:36:47;67332.28;;;17.53;100.00
46614;BME280;32338;50.430;6.806;2022-10-26T12:39:27;67356.06;;;17.81;100.00
46614;BME280;32338;50.430;6.806;2022-10-26T12:41:55;67403.34;;;18.20;100.00
46614;BME280;32338;50.430;6.806;2022-10-26T12:44:33;67412.97;;;18.28;97.44
46614;BME280;32338;50.430;6.806;2022-10-26T12:47:00;67410.53;;;18.24;98.01
46614;BME280;32338;50.430;6.806;2022-10-26T12:52:32;67427.16;;;18.41;97.22
46614;BME280;32338;50.430;6.806;2022-10-26T12:58:35;67426.97;;;18.39;96.13
46614;BME280;32338;50.430;6.806;2022-10-26T13:01:23;67430.94;;;18.50;94.10
46614;BME280;32338;50.430;6.806;2022-10-26T13:04:02;67423.75;;;18.38;94.86
46614;BME280;32338;50.430;6.806;2022-10-26T13:06:41;67404.84;;;18.19;94.91
46614;BME280;32338;50.430;6.806;2022-10-26T13:09:15;67401.06;;;18.18;95.90
46614;BME280;32338;50.430;6.806;2022-10-26T13:11:45;67400.34;;;18.14;97.93
46614;BME280;32338;50.430;6.806;2022-10-26T13:14:18;67431.13;;;18.45;100.00
46614;BME280;32338;50.430;6.806;2022-10-26T13:16:48;67429.59;;;18.46;94.78
46614;BME280;32338;50.430;6.806;2022-10-26T13:19:23;67447.19;;;18.62;94.52
46614;BME280;32338;50.430;6.806;2022-10-26T13:21:50;67453.06;;;18.62;93.03